Time;durP1;ratioP1;P1;durP2;ratioP2;P2;SDS_P1;SDS_P2;PMS_P1;PMS_P2;Temp;Humidity;BMP_temperature;BMP_pressure;BME280_temperature;BME280_humidity;BME280_pressure;Samples;Min_cycle;Max_cycle;Signal;HPM_P1;HPM_P2
2024/04/26 00:00:11;;;;;;;5.47;4.38;;;;;;;11.97;100.00;99748.09;5451243;26;19999;-69
2024/04/26 00:02:37;;;;;;;6.00;4.80;;;;;;;12.00;100.00;99734.34;5450988;26;19995;-72
2024/04/26 00:05:02;;;;;;;6.88;4.57;;;;;;;11.91;100.00;99716.00;5451319;26;20447;-72
2024/04/26 00:07:28;;;;;;;7.50;4.60;;;;;;;12.10;100.00;99743.13;5450745;26;20009;-67
2024/04/26 00:09:54;;;;;;;6.90;4.85;;;;;;;12.08;100.00;99748.28;5450995;26;20013;-69
2024/04/26 00:12:19;;;;;;;7.03;5.00;;;;;;;11.79;100.00;99748.53;5451064;26;19999;-68
2024/04/26 00:14:45;;;;;;;8.40;4.50;;;;;;;11.69;100.00;99744.03;5450883;26;20010;-69
2024/04/26 00:17:10;;;;;;;6.38;4.78;;;;;;;11.68;100.00;99738.84;5451465;26;20006;-74
2024/04/26 00:19:35;;;;;;;5.95;4.50;;;;;;;11.80;100.00;99749.41;5450797;26;20422;-72
2024/04/26 00:22:01;;;;;;;8.35;4.68;;;;;;;11.49;100.00;99733.28;5450865;26;20080;-71
2024/04/26 00:24:26;;;;;;;6.80;4.70;;;;;;;11.75;100.00;99763.97;5450895;26;20010;-74
2024/04/26 00:26:52;;;;;;;6.40;4.80;;;;;;;11.89;100.00;99766.84;5450591;26;20003;-67
2024/04/26 00:29:18;;;;;;;7.47;4.80;;;;;;;12.03;100.00;99757.66;5450645;26;20000;-70
2024/04/26 00:31:43;;;;;;;7.60;4.88;;;;;;;12.21;100.00;99767.50;5450550;26;20027;-69
2024/04/26 00:34:09;;;;;;;6.28;4.60;;;;;;;12.20;100.00;99765.75;5451583;26;20014;-72
2024/04/26 00:36:41;;;;;;;6.22;4.93;;;;;;;12.21;100.00;99761.44;5447468;26;20449;-69
2024/04/26 00:39:08;;;;;;;7.55;4.68;;;;;;;12.35;100.00;99785.00;5387648;26;19999;-70
2024/04/26 00:41:34;;;;;;;7.43;5.13;;;;;;;12.44;100.00;99788.63;5387697;26;20056;-68
2024/04/26 00:44:11;;;;;;;9.15;4.90;;;;;;;12.33;100.00;99787.56;5448460;26;20072;-69
2024/04/26 00:46:41;;;;;;;6.80;4.80;;;;;;;12.36;100.00;99792.81;5447447;26;20006;-74
2024/04/26 00:49:08;;;;;;;23.77;5.15;;;;;;;12.48;100.00;99789.56;5447171;26;20179;-71
2024/04/26 00:51:35;;;;;;;8.88;5.97;;;;;;;12.40;100.00;99794.59;5447373;26;20433;-68
2024/04/26 00:54:00;;;;;;;8.93;4.97;;;;;;;12.28;100.00;99795.22;5446974;26;19999;-69
2024/04/26 00:56:26;;;;;;;6.38;4.40;;;;;;;12.25;100.00;99807.22;5416770;26;20571;-69
2024/04/26 00:58:53;;;;;;;7.28;5.05;;;;;;;12.32;100.00;99808.25;5447781;26;19994;-73
2024/04/26 01:01:20;;;;;;;6.80;4.22;;;;;;;12.00;100.00;99767.06;5446892;26;20010;-69
2024/04/26 01:03:45;;;;;;;6.53;3.80;;;;;;;12.17;100.00;99814.84;5446696;26;19998;-70
2024/04/26 01:06:11;;;;;;;5.80;4.25;;;;;;;12.19;100.00;99815.78;5416706;26;19999;-74
2024/04/26 01:08:37;;;;;;;7.50;4.40;;;;;;;12.26;100.00;99803.81;5449637;26;19994;-69
2024/04/26 01:11:04;;;;;;;7.55;4.35;;;;;;;12.28;100.00;99804.72;5450048;26;20017;-70
2024/04/26 01:13:31;;;;;;;5.82;4.40;;;;;;;12.35;100.00;99806.59;5450467;26;20070;-74
2024/04/26 01:15:57;;;;;;;6.93;4.72;;;;;;;12.27;100.00;99809.03;5450403;26;20027;-68
2024/04/26 01:18:22;;;;;;;4.88;3.80;;;;;;;12.26;100.00;99821.94;5450216;26;20014;-68
2024/04/26 01:20:50;;;;;;;8.88;4.32;;;;;;;12.01;100.00;99824.00;5449977;26;20006;-70
2024/04/26 01:23:17;;;;;;;6.00;4.43;;;;;;;12.03;100.00;99827.50;5448339;26;20035;-67
2024/04/26 01:25:59;;;;;;;8.77;4.45;;;;;;;12.12;100.00;99832.91;5449906;26;20009;-69
2024/04/26 01:28:26;;;;;;;11.70;4.93;;;;;;;12.14;100.00;99822.56;5449389;26;20007;-69
2024/04/26 01:30:51;;;;;;;5.85;4.63;;;;;;;12.19;100.00;99835.63;5449735;26;20071;-69
2024/04/26 01:33:17;;;;;;;7.35;4.05;;;;;;;12.06;100.00;99824.13;5450056;26;20417;-69
2024/04/26 01:35:42;;;;;;;8.25;4.47;;;;;;;11.94;100.00;99814.38;5447957;26;20010;-69
2024/04/26 01:38:08;;;;;;;9.63;4.93;;;;;;;11.71;100.00;99845.75;5449463;26;20003;-70
2024/04/26 01:40:34;;;;;;;5.75;4.35;;;;;;;11.72;100.00;99844.06;5449547;26;19999;-70
2024/04/26 01:42:59;;;;;;;5.65;4.35;;;;;;;11.85;100.00;99848.69;5450322;26;20324;-69
2024/04/26 01:45:25;;;;;;;6.85;4.43;;;;;;;11.82;100.00;99836.56;5448078;26;20330;-68
2024/04/26 01:47:50;;;;;;;8.52;5.15;;;;;;;11.86;100.00;99845.22;5449375;26;20458;-69
2024/04/26 01:50:16;;;;;;;10.50;5.00;;;;;;;11.60;100.00;99799.00;5449394;26;19991;-69
2024/04/26 01:52:41;;;;;;;7.57;5.00;;;;;;;11.58;100.00;99810.16;5449430;26;19991;-70
2024/04/26 01:55:10;;;;;;;7.70;4.50;;;;;;;11.84;100.00;99857.28;5449916;26;19990;-69
2024/04/26 01:57:37;;;;;;;8.77;4.47;;;;;;;11.95;100.00;99857.47;5449558;26;19999;-69
2024/04/26 02:00:05;;;;;;;5.57;4.35;;;;;;;11.90;100.00;99834.13;5449344;26;20424;-72
2024/04/26 02:02:30;;;;;;;5.53;3.85;;;;;;;11.66;100.00;99803.41;5413251;26;19995;-74
2024/04/26 02:04:55;;;;;;;10.85;5.20;;;;;;;12.11;100.00;99877.72;5448228;26;20040;-68
2024/04/26 02:07:21;;;;;;;8.40;4.45;;;;;;;11.71;100.00;99822.50;5449741;26;20003;-69
2024/04/26 02:09:46;;;;;;;6.75;4.20;;;;;;;11.88;100.00;99886.66;5452749;26;20002;-68
2024/04/26 02:12:13;;;;;;;7.38;4.15;;;;;;;11.48;100.00;99835.78;5451454;26;20010;-69
2024/04/26 02:14:39;;;;;;;7.32;4.15;;;;;;;11.84;100.00;99884.81;5452768;26;19995;-69
2024/04/26 02:17:05;;;;;;;6.13;4.35;;;;;;;11.87;100.00;99892.66;5452547;26;20010;-70
2024/04/26 02:19:30;;;;;;;5.80;4.05;;;;;;;11.62;100.00;99867.13;5452773;26;20502;-69
2024/04/26 02:21:55;;;;;;;7.70;5.00;;;;;;;11.58;100.00;99864.44;5453476;26;20505;-70
2024/04/26 02:24:21;;;;;;;6.47;4.18;;;;;;;11.62;100.00;99885.22;5450583;26;19991;-68
2024/04/26 02:26:46;;;;;;;7.38;4.68;;;;;;;11.65;100.00;99897.34;5452521;26;20816;-71
2024/04/26 02:29:12;;;;;;;8.85;4.78;;;;;;;11.68;100.00;99910.34;5452759;26;19994;-70
2024/04/26 02:31:39;;;;;;;7.43;5.00;;;;;;;11.63;100.00;99904.22;5452342;26;20006;-70
2024/04/26 02:34:05;;;;;;;8.07;4.88;;;;;;;11.64;100.00;99911.13;5453149;26;19994;-71
2024/04/26 02:36:30;;;;;;;11.02;4.80;;;;;;;11.53;100.00;99897.94;5452656;26;20010;-69
2024/04/26 02:38:57;;;;;;;7.72;5.60;;;;;;;11.60;100.00;99911.88;5452976;26;20078;-68
2024/04/26 02:41:26;;;;;;;7.13;4.53;;;;;;;11.54;100.00;99894.53;5452336;26;20002;-70
2024/04/26 02:43:53;;;;;;;;;;;;;;;11.72;100.00;99929.41;5452963;26;20058;-74
2024/04/26 02:46:18;;;;;;;7.97;4.80;;;;;;;11.64;100.00;99936.97;5452153;26;19924;-69
2024/04/26 02:48:44;;;;;;;5.93;4.20;;;;;;;11.38;100.00;99918.25;5452426;26;19999;-69
2024/04/26 02:51:13;;;;;;;7.82;4.68;;;;;;;11.32;100.00;99927.56;5453349;26;20006;-70
2024/04/26 02:53:42;;;;;;;5.47;4.15;;;;;;;11.08;100.00;99925.25;5452170;26;20010;-68
2024/04/26 02:56:08;;;;;;;7.60;4.30;;;;;;;11.06;100.00;99939.84;5453103;26;20440;-70
2024/04/26 02:58:38;;;;;;;6.68;4.75;;;;;;;10.81;100.00;99939.16;5452041;26;20082;-71
2024/04/26 03:01:04;;;;;;;9.00;4.35;;;;;;;10.54;100.00;99890.22;5452122;26;20006;-69
2024/04/26 03:03:29;;;;;;;9.18;4.65;;;;;;;10.66;100.00;99944.78;5452975;26;20032;-70
2024/04/26 03:05:55;;;;;;;5.97;3.85;;;;;;;10.83;100.00;99934.94;5451990;26;20007;-70
2024/04/26 03:08:21;;;;;;;6.03;4.43;;;;;;;10.48;100.00;99902.97;5451899;26;19999;-67
2024/04/26 03:10:46;;;;;;;12.15;4.80;;;;;;;10.72;100.00;99935.50;5451722;26;20345;-69
2024/04/26 03:13:12;;;;;;;6.05;4.38;;;;;;;10.97;100.00;99947.34;5452064;26;20078;-68
2024/04/26 03:15:37;;;;;;;6.20;4.45;;;;;;;10.85;100.00;99914.31;5418735;26;20473;-71
2024/04/26 03:18:03;;;;;;;5.40;3.95;;;;;;;11.15;100.00;99962.44;5451799;26;20010;-70
2024/04/26 03:20:29;;;;;;;7.00;4.72;;;;;;;11.26;100.00;99962.75;5444764;26;20360;-68
2024/04/26 03:22:57;;;;;;;6.35;4.40;;;;;;;11.32;100.00;99960.31;5389056;26;20003;-70
2024/04/26 03:25:24;;;;;;;8.80;4.18;;;;;;;11.16;100.00;99920.28;5452848;26;20434;-69
2024/04/26 03:27:50;;;;;;;7.97;4.53;;;;;;;11.48;100.00;99975.38;5448640;26;19991;-68
2024/04/26 03:30:16;;;;;;;6.07;4.65;;;;;;;11.47;100.00;99963.28;5451897;26;20359;-70
2024/04/26 03:32:41;;;;;;;7.30;4.60;;;;;;;11.43;100.00;99982.13;5451416;26;20085;-69
2024/04/26 03:35:07;;;;;;;7.85;4.30;;;;;;;11.21;100.00;99972.94;5452403;26;20001;-69
2024/04/26 03:37:32;;;;;;;10.40;5.75;;;;;;;10.89;100.00;99977.25;5451196;26;20075;-69
2024/04/26 03:39:58;;;;;;;10.20;6.78;;;;;;;10.73;100.00;99966.50;5451540;26;20009;-69
2024/04/26 03:42:43;;;;;;;11.73;7.20;;;;;;;10.75;100.00;99982.88;5451498;26;20461;-71
2024/04/26 03:45:09;;;;;;;10.35;6.05;;;;;;;10.83;100.00;99976.25;5451752;26;20066;-71
2024/04/26 03:47:34;;;;;;;8.98;4.57;;;;;;;11.00;100.00;99999.06;5466352;26;20002;-67
2024/04/26 03:50:03;;;;;;;8.93;4.97;;;;;;;11.03;100.00;99993.13;5404933;26;19990;-69
2024/04/26 03:52:28;;;;;;;6.32;4.50;;;;;;;10.99;100.00;99980.13;5462962;26;20030;-70
2024/04/26 03:54:54;;;;;;;5.70;4.63;;;;;;;11.14;100.00;99991.69;5463107;26;19998;-69
2024/04/26 03:57:23;;;;;;;8.02;5.10;;;;;;;11.21;100.00;100001.38;5477005;26;20069;-69
2024/04/26 03:59:48;;;;;;;7.22;5.18;;;;;;;11.26;100.00;100011.84;5468595;26;19998;-69
2024/04/26 04:02:14;;;;;;;9.80;5.38;;;;;;;11.35;100.00;100003.44;5465018;26;20376;-68
2024/04/26 04:04:39;;;;;;;6.80;4.55;;;;;;;11.45;100.00;100015.78;5462967;26;20042;-74
2024/04/26 04:07:04;;;;;;;9.75;4.65;;;;;;;11.48;100.00;100006.38;5463423;26;20034;-72
2024/04/26 04:09:30;;;;;;;10.75;4.60;;;;;;;11.30;100.00;99990.41;5466364;26;20030;-72
2024/04/26 04:11:55;;;;;;;6.43;4.90;;;;;;;11.52;100.00;100028.03;5466564;26;19994;-69
2024/04/26 04:14:21;;;;;;;9.13;4.45;;;;;;;11.52;100.00;100025.44;5440475;26;20003;-68
2024/04/26 04:16:47;;;;;;;7.50;4.72;;;;;;;11.56;100.00;100028.97;5453436;26;20013;-70
2024/04/26 04:19:14;;;;;;;7.50;4.55;;;;;;;11.21;100.00;100041.84;5418317;26;20021;-70
2024/04/26 04:21:40;;;;;;;6.70;4.68;;;;;;;10.83;100.00;100030.47;5451043;26;20468;-69
2024/04/26 04:24:06;;;;;;;6.15;4.82;;;;;;;10.58;100.00;100028.00;5449956;26;20002;-70
2024/04/26 04:26:31;;;;;;;6.20;4.95;;;;;;;10.60;100.00;100041.84;5451143;26;20014;-69
2024/04/26 04:28:57;;;;;;;9.32;5.30;;;;;;;10.66;100.00;100042.03;5450965;26;20501;-69
2024/04/26 04:31:26;;;;;;;6.60;4.95;;;;;;;10.22;100.00;99966.69;5449887;26;20011;-69
2024/04/26 04:33:52;;;;;;;8.15;5.65;;;;;;;10.60;100.00;100050.44;5449854;26;19994;-71
2024/04/26 04:36:17;;;;;;;8.00;5.80;;;;;;;10.66;100.00;100057.50;5451179;26;20330;-68
2024/04/26 04:38:45;;;;;;;7.55;5.90;;;;;;;10.70;100.00;100066.22;5450978;26;19994;-70
2024/04/26 04:41:12;;;;;;;6.90;5.72;;;;;;;10.61;100.00;100062.53;5451032;26;20425;-70
2024/04/26 04:43:37;;;;;;;7.07;5.45;;;;;;;10.67;100.00;100067.00;5449967;26;20005;-71
2024/04/26 04:46:06;;;;;;;7.82;5.85;;;;;;;10.59;100.00;100068.47;5449229;26;19998;-70
2024/04/26 04:48:32;;;;;;;7.65;5.80;;;;;;;10.32;100.00;100056.47;5443479;26;20010;-67
2024/04/26 04:50:57;;;;;;;9.07;5.88;;;;;;;10.36;100.00;100061.78;5449286;26;19994;-72
2024/04/26 04:53:22;;;;;;;8.88;6.05;;;;;;;10.49;100.00;100070.78;5446280;26;20359;-70
2024/04/26 04:55:48;;;;;;;9.77;6.55;;;;;;;10.36;100.00;100048.00;5419951;26;20006;-69
2024/04/26 04:58:16;;;;;;;8.82;6.20;;;;;;;10.43;100.00;100068.03;5451252;26;20465;-69
2024/04/26 05:00:41;;;;;;;10.10;6.43;;;;;;;10.45;100.00;100074.06;5450199;26;20027;-67
2024/04/26 05:03:07;;;;;;;14.23;6.80;;;;;;;10.47;100.00;100067.28;5450418;26;20428;-68
2024/04/26 05:05:33;;;;;;;8.00;6.30;;;;;;;10.50;100.00;100069.06;5450688;26;20080;-70
2024/04/26 05:07:58;;;;;;;12.32;6.95;;;;;;;10.57;100.00;100078.75;5450774;26;20011;-69
2024/04/26 05:10:24;;;;;;;7.78;6.35;;;;;;;10.55;100.00;100064.06;5450203;26;20391;-70
2024/04/26 05:12:49;;;;;;;9.95;7.32;;;;;;;10.79;100.00;100089.72;5449864;26;20014;-69
2024/04/26 05:15:16;;;;;;;9.45;6.95;;;;;;;10.87;100.00;100087.41;5449863;26;20030;-69
2024/04/26 05:17:47;;;;;;;8.40;6.88;;;;;;;10.83;100.00;100084.69;5450107;26;20333;-68
2024/04/26 05:20:13;;;;;;;10.43;6.88;;;;;;;11.04;100.00;100095.63;5449911;26;20009;-69
2024/04/26 05:22:40;;;;;;;9.02;6.80;;;;;;;10.94;100.00;100094.47;5450770;26;20005;-69
2024/04/26 05:25:06;;;;;;;10.55;6.95;;;;;;;10.69;100.00;100021.44;5449948;26;20449;-67
2024/04/26 05:27:32;;;;;;;7.82;6.80;;;;;;;11.31;100.00;100096.41;5449822;26;20010;-74
2024/04/26 05:29:58;;;;;;;9.18;6.95;;;;;;;11.40;100.00;100085.47;5450925;26;19999;-69
2024/04/26 05:32:23;;;;;;;10.27;7.13;;;;;;;11.64;100.00;100102.47;5417926;26;20084;-68
2024/04/26 05:34:49;;;;;;;10.13;6.90;;;;;;;11.63;100.00;100080.03;5449711;26;20013;-72
2024/04/26 05:37:14;;;;;;;8.95;6.13;;;;;;;11.78;100.00;100108.84;5449705;26;19995;-72
2024/04/26 05:39:40;;;;;;;10.13;6.30;;;;;;;11.55;100.00;100097.91;5449781;26;20003;-69
2024/04/26 05:42:06;;;;;;;10.52;7.18;;;;;;;11.71;100.00;100106.06;5449913;26;19999;-71
2024/04/26 05:44:31;;;;;;;10.95;6.97;;;;;;;11.84;100.00;100117.59;5452942;26;20924;-67
2024/04/26 05:46:59;;;;;;;9.38;7.22;;;;;;;11.86;100.00;100110.78;5453853;26;19995;-69
2024/04/26 05:49:24;;;;;;;8.50;6.78;;;;;;;11.98;100.00;100114.56;5453022;26;19995;-71
2024/04/26 05:51:50;;;;;;;8.48;6.70;;;;;;;11.98;100.00;100105.94;5420114;26;19998;-68
2024/04/26 05:54:15;;;;;;;9.50;6.50;;;;;;;12.18;100.00;100123.69;5454119;26;20512;-67
2024/04/26 05:56:41;;;;;;;8.40;6.78;;;;;;;12.11;100.00;100112.28;5452928;26;20014;-73
2024/04/26 05:59:06;;;;;;;9.85;7.22;;;;;;;12.32;100.00;100132.66;5454158;26;19991;-70
2024/04/26 06:01:35;;;;;;;7.85;6.35;;;;;;;12.37;100.00;100130.19;5452891;26;20079;-69
2024/04/26 06:04:01;;;;;;;9.40;6.63;;;;;;;12.41;100.00;100134.59;5453021;26;20498;-74
2024/04/26 06:06:27;;;;;;;8.20;6.30;;;;;;;12.32;100.00;100153.34;5452919;26;20011;-68
2024/04/26 06:08:53;;;;;;;10.80;6.78;;;;;;;12.28;100.00;100128.25;5452587;26;19999;-69
2024/04/26 06:11:19;;;;;;;11.05;6.97;;;;;;;12.05;100.00;100113.03;5452733;26;20003;-68
2024/04/26 06:13:45;;;;;;;10.65;7.50;;;;;;;12.38;100.00;100144.88;5450724;26;20449;-69
2024/04/26 06:16:11;;;;;;;8.70;6.88;;;;;;;12.44;100.00;100152.81;5453328;26;20044;-71
2024/04/26 06:18:38;;;;;;;8.05;6.05;;;;;;;12.42;100.00;100154.47;5453248;26;19991;-70
2024/04/26 06:21:04;;;;;;;9.07;7.10;;;;;;;12.23;100.00;100132.44;5453147;26;20014;-70
2024/04/26 06:23:29;;;;;;;10.43;7.28;;;;;;;12.27;100.00;100110.97;5452695;26;19998;-69
2024/04/26 06:25:55;;;;;;;9.15;6.40;;;;;;;12.30;100.00;100113.66;5453117;26;19998;-70
2024/04/26 06:28:20;;;;;;;9.25;6.75;;;;;;;12.64;100.00;100153.28;5451989;26;20063;-69
2024/04/26 06:30:46;;;;;;;7.93;6.03;;;;;;;12.62;100.00;100154.94;5452697;26;20007;-68
2024/04/26 06:33:11;;;;;;;9.38;6.70;;;;;;;12.64;100.00;100155.84;5452675;26;20060;-69
2024/04/26 06:35:42;;;;;;;8.93;6.78;;;;;;;12.59;100.00;100160.91;5452566;26;19987;-69
2024/04/26 06:38:08;;;;;;;8.48;6.47;;;;;;;12.73;100.00;100163.81;5453202;26;19995;-70
2024/04/26 06:40:33;;;;;;;8.27;6.82;;;;;;;12.75;100.00;100164.75;5452219;26;20429;-69
2024/04/26 06:42:59;;;;;;;11.85;6.47;;;;;;;12.81;100.00;100147.59;5452697;26;20039;-71
2024/04/26 06:45:25;;;;;;;7.70;6.05;;;;;;;12.93;100.00;100169.50;5452336;26;20014;-68
2024/04/26 06:47:52;;;;;;;8.40;5.97;;;;;;;12.92;100.00;100135.75;5452896;26;20067;-69
2024/04/26 06:50:17;;;;;;;6.97;5.60;;;;;;;13.22;100.00;100168.34;5450745;26;20433;-71
2024/04/26 06:52:44;;;;;;;7.88;5.40;;;;;;;13.60;100.00;100183.88;5451984;26;20072;-70
2024/04/26 06:55:09;;;;;;;6.53;4.85;;;;;;;13.80;100.00;100181.66;5452785;26;20451;-69
2024/04/26 06:57:35;;;;;;;6.30;5.30;;;;;;;13.82;100.00;100155.75;5452076;26;19999;-70
2024/04/26 07:00:01;;;;;;;6.72;5.07;;;;;;;13.95;100.00;100177.63;5452204;26;20014;-69
2024/04/26 07:02:26;;;;;;;8.27;5.15;;;;;;;13.86;100.00;100186.97;5452110;26;20003;-70
2024/04/26 07:04:52;;;;;;;5.68;4.20;;;;;;;14.10;100.00;100184.81;5452344;26;20448;-70
2024/04/26 07:07:18;;;;;;;5.75;4.32;;;;;;;14.24;100.00;100149.56;5452923;26;19991;-69
2024/04/26 07:09:43;;;;;;;5.93;4.13;;;;;;;14.67;100.00;100184.06;5451629;26;20010;-70
2024/04/26 07:12:11;;;;;;;6.45;4.60;;;;;;;14.84;100.00;100199.91;5451917;26;19999;-71
2024/04/26 08:36:31;;;;;;;5.97;3.45;;;;;;;15.51;100.00;100227.72;5426730;25;21412;-71
2024/04/26 08:38:58;;;;;;;6.18;2.78;;;;;;;15.80;100.00;100223.69;5400552;26;20444;-73
2024/04/26 08:41:25;;;;;;;3.65;2.78;;;;;;;15.94;100.00;100227.38;5419555;26;20073;-73
2024/04/26 08:43:50;;;;;;;5.10;2.97;;;;;;;16.21;100.00;100227.66;5407520;26;20000;-73
2024/04/26 08:46:18;;;;;;;4.45;3.15;;;;;;;16.50;100.00;100217.50;5408548;26;20004;-70
2024/04/26 08:48:49;;;;;;;6.90;3.17;;;;;;;16.57;100.00;100201.03;5418479;26;19995;-76
2024/04/26 08:51:16;;;;;;;5.70;3.10;;;;;;;16.79;100.00;100215.13;5404048;26;19996;-75
2024/04/26 08:53:42;;;;;;;4.38;2.90;;;;;;;16.70;100.00;100225.50;5416238;26;20023;-71
2024/04/26 08:56:12;;;;;;;3.90;2.78;;;;;;;16.90;98.26;100230.84;5405710;26;20004;-72
2024/04/26 08:58:39;;;;;;;3.72;2.70;;;;;;;17.13;98.26;100219.72;5418467;26;20012;-71
2024/04/26 09:01:06;;;;;;;5.35;2.70;;;;;;;17.37;99.13;100219.00;5415362;26;20000;-74
2024/04/26 09:03:32;;;;;;;3.92;2.78;;;;;;;17.36;95.62;100199.00;5414292;26;20027;-74
2024/04/26 09:06:00;;;;;;;4.18;2.80;;;;;;;17.65;96.44;100226.09;5402436;26;20314;-70
2024/04/26 09:08:26;;;;;;;5.18;2.70;;;;;;;17.80;97.14;100220.91;5424837;26;20018;-71
2024/04/26 09:10:52;;;;;;;4.78;2.53;;;;;;;18.04;95.24;100221.88;5414391;26;20437;-75
2024/04/26 09:13:17;;;;;;;5.32;2.63;;;;;;;18.11;92.22;100224.50;5415255;26;19996;-71
2024/04/26 09:15:44;;;;;;;4.15;3.10;;;;;;;17.69;95.20;100144.28;5385097;26;20460;-74
2024/04/26 09:18:09;;;;;;;4.35;3.10;;;;;;;17.98;91.74;100177.47;5418084;26;20014;-71
2024/04/26 09:20:36;;;;;;;3.63;2.83;;;;;;;18.18;95.40;100195.78;5402049;26;20000;-75
2024/04/26 09:23:03;;;;;;;5.85;2.90;;;;;;;18.24;94.24;100183.59;5398518;26;20002;-72
2024/04/26 09:25:39;;;;;;;4.95;2.67;;;;;;;18.49;92.47;100216.72;5416648;26;20070;-76
2024/04/26 09:28:14;;;;;;;4.43;3.05;;;;;;;18.62;92.28;100214.94;5402466;26;20042;-74
2024/04/26 09:30:49;;;;;;;5.75;3.30;;;;;;;18.67;91.46;100206.25;5409972;26;20032;-71
2024/04/26 09:33:19;;;;;;;3.22;2.90;;;;;;;18.72;91.02;100207.13;5413400;26;20011;-73
2024/04/26 09:35:47;;;;;;;4.40;2.78;;;;;;;18.67;85.75;100210.63;5405766;26;20000;-71
2024/04/26 09:38:21;;;;;;;4.57;2.80;;;;;;;18.73;88.73;100210.63;5414111;26;20012;-73
2024/04/26 09:40:52;;;;;;;3.42;2.45;;;;;;;18.50;82.15;100194.94;5414755;26;19996;-75
2024/04/26 09:43:18;;;;;;;6.13;2.85;;;;;;;18.48;84.36;100205.41;5401859;26;19996;-72
2024/04/26 09:45:45;;;;;;;4.07;2.92;;;;;;;18.38;85.45;100167.94;5415092;26;20010;-72
2024/04/26 09:48:13;;;;;;;3.72;2.47;;;;;;;18.87;84.61;100206.22;5400786;26;20437;-70
2024/04/26 09:50:40;;;;;;;3.50;2.50;;;;;;;19.16;81.49;100201.84;5399267;26;20031;-74
2024/04/26 09:53:06;;;;;;;4.38;2.85;;;;;;;19.35;76.94;100197.41;5401545;26;20035;-74
2024/04/26 09:55:32;;;;;;;4.05;2.20;;;;;;;19.48;74.06;100198.25;5402227;26;20003;-72
2024/04/26 09:57:59;;;;;;;3.45;2.38;;;;;;;19.33;75.35;100171.25;5402233;26;20007;-72
2024/04/26 10:00:28;;;;;;;3.70;3.15;;;;;;;19.44;81.05;100197.41;5392529;26;20449;-76
2024/04/26 10:03:00;;;;;;;4.43;2.58;;;;;;;19.39;79.61;100194.78;5387118;26;20020;-73
2024/04/26 10:05:29;;;;;;;3.50;2.65;;;;;;;19.30;79.75;100186.09;5397223;26;20007;-71
2024/04/26 10:08:03;;;;;;;3.95;2.72;;;;;;;19.48;79.27;100200.88;5379797;26;20338;-70
2024/04/26 10:10:30;;;;;;;3.90;2.15;;;;;;;19.79;73.71;100198.09;5397408;26;20069;-72
2024/04/26 10:13:15;;;;;;;5.82;2.50;;;;;;;19.80;72.99;100198.09;5386399;26;20000;-75
2024/04/26 10:15:54;;;;;;;3.97;2.50;;;;;;;19.68;75.28;100183.31;5386532;26;20441;-76
2024/04/26 10:18:31;;;;;;;3.63;2.80;;;;;;;19.81;73.20;100189.38;5395345;26;19992;-71
2024/04/26 10:20:57;;;;;;;3.25;2.63;;;;;;;19.97;77.69;100192.78;5397514;26;20000;-71
2024/04/26 10:23:22;;;;;;;3.50;2.70;;;;;;;19.66;76.91;100200.78;5398082;26;20009;-72
2024/04/26 10:25:48;;;;;;;6.45;2.40;;;;;;;19.93;76.48;100188.44;5398133;26;19996;-73
2024/04/26 10:28:15;;;;;;;5.15;2.50;;;;;;;19.82;76.01;100192.84;5398177;26;20020;-75
2024/04/26 10:30:50;;;;;;;4.00;2.72;;;;;;;19.32;78.10;100194.81;5400551;26;20511;-71
2024/04/26 10:33:20;;;;;;;3.22;2.30;;;;;;;19.41;78.07;100181.69;5401677;26;20037;-74
2024/04/26 10:35:46;;;;;;;4.47;2.30;;;;;;;19.80;78.85;100194.59;5405252;26;20000;-71
2024/04/26 10:38:12;;;;;;;4.85;2.53;;;;;;;19.67;72.53;100089.03;5397635;26;20019;-70
2024/04/26 10:40:48;;;;;;;3.28;2.10;;;;;;;20.60;74.72;100182.69;5401645;26;20499;-72
2024/04/26 10:43:29;;;;;;;4.35;2.25;;;;;;;20.90;72.82;100172.81;5400973;26;20372;-74
2024/04/26 10:45:57;;;;;;;3.50;2.05;;;;;;;20.92;70.59;100147.44;5391407;26;20064;-72
2024/04/26 10:48:28;;;;;;;3.78;2.42;;;;;;;21.28;70.24;100187.28;5397213;26;20028;-75
2024/04/26 10:51:23;;;;;;;3.55;2.20;;;;;;;21.26;69.32;100184.69;5385938;26;20014;-72
2024/04/26 10:53:51;;;;;;;3.55;2.13;;;;;;;20.69;66.13;100164.28;5396014;26;20105;-71
2024/04/26 10:56:18;;;;;;;5.80;2.25;;;;;;;20.53;65.43;100176.66;5401234;26;20008;-73
2024/04/26 10:58:45;;;;;;;5.47;2.28;;;;;;;20.72;64.54;100169.50;5399975;26;20039;-74
2024/04/26 11:01:17;;;;;;;3.63;2.50;;;;;;;20.95;65.96;100137.78;5397919;26;19996;-74
2024/04/26 11:03:53;;;;;;;3.30;2.08;;;;;;;20.68;65.12;100149.41;5396724;26;20000;-74
2024/04/26 11:06:33;;;;;;;3.38;2.17;;;;;;;20.62;63.67;100178.31;5388202;26;20051;-73
2024/04/26 11:09:05;;;;;;;2.90;2.30;;;;;;;20.65;64.43;100175.69;5389263;26;20329;-73
2024/04/26 11:11:30;;;;;;;3.05;2.47;;;;;;;20.40;62.31;100147.06;5401521;26;20339;-74
2024/04/26 11:13:59;;;;;;;3.95;2.30;;;;;;;20.88;64.36;100167.59;5399511;26;20000;-72
2024/04/26 11:16:25;;;;;;;3.20;2.07;;;;;;;21.38;65.61;100167.91;5394661;26;20022;-74
2024/04/26 11:18:50;;;;;;;3.67;1.83;;;;;;;21.55;63.02;100132.69;5397631;26;20433;-73
2024/04/26 11:21:16;;;;;;;3.33;2.30;;;;;;;22.02;62.89;100177.59;5395030;26;20028;-73
2024/04/26 11:23:42;;;;;;;2.50;2.05;;;;;;;22.00;59.15;100140.81;5399454;26;20450;-73
2024/04/26 11:26:10;;;;;;;2.97;2.10;;;;;;;22.21;60.69;100158.00;5388159;26;20011;-73
2024/04/26 11:28:36;;;;;;;2.33;2.00;;;;;;;22.33;57.36;100162.22;5363310;26;20007;-72
2024/04/26 11:31:01;;;;;;;3.58;2.20;;;;;;;22.30;56.92;100167.50;5400483;26;19996;-73
2024/04/26 11:33:27;;;;;;;4.57;2.10;;;;;;;22.02;55.71;100177.59;5396219;26;20000;-73
2024/04/26 11:35:52;;;;;;;5.43;2.10;;;;;;;21.69;56.61;100171.94;5385170;26;20390;-77
2024/04/26 11:38:18;;;;;;;2.80;1.70;;;;;;;21.40;56.73;100160.88;5401029;26;20001;-79
2024/04/26 11:40:45;;;;;;;2.40;1.80;;;;;;;21.57;57.33;100171.22;5397540;26;19996;-73
2024/04/26 11:43:12;;;;;;;3.42;1.52;;;;;;;21.19;59.73;100164.63;5399252;26;20002;-72
2024/04/26 11:45:38;;;;;;;3.08;2.00;;;;;;;21.06;61.47;100165.66;5397329;26;20004;-73
2024/04/26 11:48:04;;;;;;;2.83;1.85;;;;;;;20.78;61.03;100172.06;5398003;26;20461;-72
2024/04/26 11:50:30;;;;;;;2.90;1.75;;;;;;;20.76;59.36;100152.88;5383498;26;20037;-78
2024/04/26 11:52:56;;;;;;;2.78;2.10;;;;;;;21.09;61.83;100174.38;5398013;26;19996;-72
2024/04/26 11:55:21;;;;;;;4.35;2.35;;;;;;;21.37;57.35;100139.94;5399895;26;20007;-74
2024/04/26 11:57:47;;;;;;;4.18;2.22;;;;;;;21.85;59.12;100162.94;5400516;26;19999;-75
2024/04/26 12:00:13;;;;;;;7.13;1.88;;;;;;;22.19;59.01;100161.56;5400526;26;20073;-72
2024/04/26 12:02:39;;;;;;;2.92;1.90;;;;;;;21.82;56.53;100170.88;5397337;26;20005;-73
2024/04/26 12:05:05;;;;;;;2.85;2.17;;;;;;;21.29;56.96;100113.75;5387643;26;20000;-75
2024/04/26 12:07:30;;;;;;;4.97;2.15;;;;;;;21.30;59.52;100159.28;5398642;26;20010;-71
2024/04/26 12:09:56;;;;;;;3.22;1.92;;;;;;;20.62;58.55;100138.97;5397581;26;20806;-72
2024/04/26 12:12:21;;;;;;;2.33;2.00;;;;;;;20.70;61.02;100168.63;5399981;26;20000;-73
2024/04/26 12:14:47;;;;;;;3.10;2.10;;;;;;;20.18;62.74;100139.34;5400482;26;20024;-79
2024/04/26 12:17:12;;;;;;;3.22;2.22;;;;;;;19.82;62.18;100095.94;5400375;26;20035;-77
2024/04/26 12:19:38;;;;;;;2.60;1.98;;;;;;;20.22;61.10;100163.78;5396487;26;20016;-76
2024/04/26 12:22:03;;;;;;;4.70;2.15;;;;;;;20.47;65.31;100172.34;5396495;26;20011;-75
2024/04/26 12:24:29;;;;;;;7.82;2.47;;;;;;;20.65;65.61;100173.06;5396514;26;20447;-73
2024/04/26 12:26:55;;;;;;;4.80;2.15;;;;;;;20.73;63.76;100168.63;5396229;26;20019;-72
2024/04/26 12:29:22;;;;;;;7.35;2.40;;;;;;;20.88;62.59;100167.59;5398525;26;20027;-76
2024/04/26 12:31:52;;;;;;;3.53;2.45;;;;;;;20.69;62.37;100128.41;5399882;26;20045;-73
2024/04/26 12:34:18;;;;;;;4.68;2.05;;;;;;;20.94;62.34;100157.03;5395232;26;20303;-72
2024/04/26 12:36:44;;;;;;;3.45;2.25;;;;;;;20.75;59.10;100119.66;5393016;26;20008;-71
2024/04/26 12:39:11;;;;;;;5.30;2.00;;;;;;;21.11;62.96;100174.34;5396473;26;20012;-74
2024/04/26 12:41:41;;;;;;;3.72;1.92;;;;;;;21.08;61.12;100158.66;5396270;26;20000;-73